METAR Data
IDs: Format: Raw Decoded Include TAF

Data at: 1101 UTC 07 Dec 2022

PTKK 071053Z 00000KT 15SM FEW014 BKN120 OVC280 26/24 A2978 RMK SLP086 T02600235